Time;durP1;ratioP1;P1;durP2;ratioP2;P2;SDS_P1;SDS_P2;PMS_P1;PMS_P2;Temp;Humidity;BMP_temperature;BMP_pressure;BME280_temperature;BME280_humidity;BME280_pressure;Samples;Min_cycle;Max_cycle;Signal;HPM_P1;HPM_P2
2021/12/27 00:01:24;;;;;;;12.73;10.93;;;9.60;99.90;;;;;;5047699;28;20277;-87
2021/12/27 00:03:51;;;;;;;12.53;10.87;;;9.70;99.90;;;;;;5048621;28;20197;-80
2021/12/27 00:06:18;;;;;;;12.40;11.03;;;9.80;99.90;;;;;;5056334;28;20178;-81
2021/12/27 00:08:44;;;;;;;12.87;10.57;;;9.70;99.90;;;;;;5056354;28;20161;-79
2021/12/27 00:11:12;;;;;;;12.73;10.80;;;9.80;99.90;;;;;;5052710;28;20684;-86
2021/12/27 00:13:38;;;;;;;13.33;11.70;;;9.70;99.90;;;;;;5041209;28;20158;-90
2021/12/27 00:16:06;;;;;;;13.33;11.00;;;9.70;99.90;;;;;;5041579;28;20245;-88
2021/12/27 00:18:32;;;;;;;12.03;10.47;;;9.60;99.90;;;;;;5049139;28;20244;-83
2021/12/27 00:20:58;;;;;;;13.03;10.83;;;9.60;99.90;;;;;;5049614;28;20174;-81
2021/12/27 00:23:25;;;;;;;12.53;11.17;;;9.70;99.90;;;;;;5067173;28;20170;-85
2021/12/27 00:25:52;;;;;;;14.63;11.13;;;9.60;99.90;;;;;;5049051;28;20177;-81
2021/12/27 00:28:17;;;;;;;15.07;11.20;;;9.40;99.90;;;;;;5070336;28;20186;-91
2021/12/27 00:30:46;;;;;;;14.50;11.80;;;9.50;99.90;;;;;;5055432;28;20229;-91
2021/12/27 00:33:11;;;;;;;13.93;10.93;;;9.40;99.90;;;;;;5042540;28;20189;-91
2021/12/27 00:35:41;;;;;;;14.87;11.30;;;9.50;99.90;;;;;;5042788;28;20172;-91
2021/12/27 00:38:07;;;;;;;14.23;11.80;;;9.50;99.90;;;;;;5042100;28;20213;-90
2021/12/27 00:40:35;;;;;;;14.60;11.90;;;9.50;99.90;;;;;;5041408;28;20180;-91
2021/12/27 00:43:02;;;;;;;15.00;12.47;;;9.50;99.90;;;;;;5039304;28;20239;-86
2021/12/27 00:45:28;;;;;;;14.90;11.63;;;9.40;99.90;;;;;;5039964;28;20701;-92
2021/12/27 00:47:54;;;;;;;14.90;12.07;;;9.40;99.90;;;;;;5039950;28;20165;-89
2021/12/27 00:50:20;;;;;;;15.53;12.97;;;9.40;99.90;;;;;;5040781;28;20168;-91
2021/12/27 00:52:46;;;;;;;16.47;12.43;;;9.50;99.90;;;;;;5040225;28;20197;-91
2021/12/27 00:55:13;;;;;;;15.90;12.83;;;9.60;99.90;;;;;;5041089;28;20178;-92
2021/12/27 00:57:39;;;;;;;13.70;11.83;;;9.60;99.90;;;;;;5040104;28;20590;-92
2021/12/27 01:00:10;;;;;;;14.60;11.90;;;9.60;99.90;;;;;;5039394;28;20212;-90
2021/12/27 01:02:38;;;;;;;15.93;13.33;;;9.70;99.90;;;;;;5038686;28;20177;-87
2021/12/27 01:05:06;;;;;;;15.83;12.93;;;9.70;99.90;;;;;;5038652;28;20186;-90
2021/12/27 01:07:32;;;;;;;17.70;13.27;;;9.70;99.90;;;;;;5038838;28;20173;-87
2021/12/27 01:12:45;;;;;;;16.27;12.83;;;9.70;99.90;;;;;;5038521;28;20641;-88
2021/12/27 01:18:00;;;;;;;16.90;14.00;;;9.70;99.90;;;;;;5011917;28;20214;-92
2021/12/27 01:20:26;;;;;;;19.27;14.43;;;9.80;99.90;;;;;;5055031;28;20177;-92
2021/12/27 01:22:53;;;;;;;21.27;14.73;;;9.70;99.90;;;;;;5040799;28;20641;-91
2021/12/27 01:25:21;;;;;;;17.73;13.53;;;9.70;99.90;;;;;;5037948;28;20184;-90
2021/12/27 01:27:47;;;;;;;18.77;14.37;;;9.70;99.90;;;;;;5039910;28;20296;-90
2021/12/27 01:30:19;;;;;;;19.93;13.83;;;9.60;99.90;;;;;;5039296;28;20645;-85
2021/12/27 01:32:51;;;;;;;17.73;13.87;;;9.60;99.90;;;;;;5042617;28;20158;-90
2021/12/27 01:35:18;;;;;;;16.73;13.67;;;9.60;99.90;;;;;;5038409;28;20186;-92
2021/12/27 01:37:44;;;;;;;19.97;14.77;;;9.60;99.90;;;;;;5054321;28;20224;-91
2021/12/27 01:40:13;;;;;;;18.83;14.70;;;9.60;99.90;;;;;;5039217;28;20181;-90
2021/12/27 01:43:09;;;;;;;20.00;14.73;;;9.60;99.90;;;;;;5041237;28;20182;-91
2021/12/27 01:45:43;;;;;;;22.63;16.40;;;9.60;99.90;;;;;;5040263;28;20158;-91
2021/12/27 01:48:09;;;;;;;18.67;15.50;;;9.70;99.90;;;;;;5038619;28;20165;-90
2021/12/27 01:50:44;;;;;;;20.17;15.63;;;9.70;99.90;;;;;;5040241;28;20221;-90
2021/12/27 01:53:11;;;;;;;20.90;15.57;;;9.70;99.90;;;;;;5039374;28;20176;-88
2021/12/27 01:55:38;;;;;;;20.93;15.53;;;9.60;99.90;;;;;;5039668;28;20169;-89
2021/12/27 01:58:05;;;;;;;18.17;14.87;;;9.70;99.90;;;;;;5038586;28;20201;-84
2021/12/27 02:00:32;;;;;;;21.83;15.30;;;9.70;99.90;;;;;;5036339;28;20181;-91
2021/12/27 02:02:57;;;;;;;20.67;14.50;;;9.70;99.90;;;;;;5037697;28;20170;-92
2021/12/27 02:05:23;;;;;;;23.03;16.03;;;9.70;99.90;;;;;;5053147;28;20571;-92
2021/12/27 02:07:49;;;;;;;20.50;15.37;;;9.70;99.90;;;;;;5037568;28;20528;-91
2021/12/27 02:10:15;;;;;;;20.87;15.53;;;9.60;99.90;;;;;;5052295;28;20224;-93
2021/12/27 02:12:43;;;;;;;22.27;16.23;;;9.60;99.90;;;;;;5036114;28;20177;-87
2021/12/27 02:15:10;;;;;;;24.63;16.03;;;9.70;99.90;;;;;;5038817;28;20168;-91
2021/12/27 02:17:38;;;;;;;22.57;16.73;;;9.60;99.90;;;;;;5054964;28;20300;-90
2021/12/27 02:20:10;;;;;;;23.90;16.33;;;9.70;99.90;;;;;;5039854;28;20166;-91
2021/12/27 02:22:37;;;;;;;23.53;17.00;;;9.60;99.90;;;;;;5036726;28;20736;-90
2021/12/27 02:25:05;;;;;;;23.63;18.20;;;9.60;99.90;;;;;;5038251;28;20189;-89
2021/12/27 02:27:33;;;;;;;23.90;16.93;;;9.60;99.90;;;;;;5036722;28;20162;-86
2021/12/27 02:30:09;;;;;;;21.93;16.53;;;9.70;99.90;;;;;;5036669;28;20169;-90
2021/12/27 02:33:06;;;;;;;22.20;16.27;;;9.60;99.90;;;;;;5034843;28;20176;-91
2021/12/27 02:35:38;;;;;;;24.43;17.60;;;9.60;99.90;;;;;;5028582;28;20221;-90
2021/12/27 02:38:07;;;;;;;24.60;17.60;;;9.70;99.90;;;;;;5037886;28;20358;-89
2021/12/27 02:40:35;;;;;;;24.60;17.63;;;9.60;99.90;;;;;;5038727;28;20201;-89
2021/12/27 02:43:10;;;;;;;25.50;17.30;;;9.70;99.90;;;;;;5037176;28;20166;-92
2021/12/27 02:45:39;;;;;;;25.57;18.27;;;9.60;99.90;;;;;;5036490;28;20184;-92
2021/12/27 02:48:07;;;;;;;26.77;18.17;;;9.80;99.90;;;;;;5036395;28;20228;-91
2021/12/27 02:50:35;;;;;;;22.20;17.43;;;9.80;99.90;;;;;;5038057;28;20174;-90
2021/12/27 02:53:03;;;;;;;28.83;19.03;;;9.70;99.90;;;;;;5036709;28;20593;-92
2021/12/27 02:55:29;;;;;;;26.07;18.17;;;9.70;99.90;;;;;;5053227;28;20184;-92
2021/12/27 02:57:55;;;;;;;27.83;18.13;;;9.80;99.90;;;;;;5035474;28;20209;-82
2021/12/27 03:00:29;;;;;;;25.77;17.83;;;9.80;99.90;;;;;;5038274;28;20142;-89
2021/12/27 03:02:56;;;;;;;25.80;18.50;;;9.90;99.90;;;;;;5035993;28;20218;-87
2021/12/27 03:05:25;;;;;;;26.83;17.67;;;9.90;99.90;;;;;;5036521;28;20248;-87
2021/12/27 03:07:52;;;;;;;25.43;17.50;;;9.80;99.90;;;;;;5041310;28;20170;-90
2021/12/27 03:10:21;;;;;;;25.37;19.33;;;9.80;99.90;;;;;;5040213;28;20178;-91
2021/12/27 03:12:48;;;;;;;26.20;18.83;;;9.70;99.90;;;;;;5044103;28;20162;-90
2021/12/27 03:15:17;;;;;;;26.83;17.67;;;9.70;99.90;;;;;;5044837;28;20225;-91
2021/12/27 03:17:45;;;;;;;26.77;18.20;;;9.70;99.90;;;;;;5044526;28;20296;-92
2021/12/27 03:20:12;;;;;;;26.53;18.07;;;9.70;99.90;;;;;;5045260;28;20185;-91
2021/12/27 03:22:40;;;;;;;25.53;17.87;;;9.70;99.90;;;;;;5046327;28;20204;-90
2021/12/27 03:25:11;;;;;;;24.93;18.33;;;9.70;99.90;;;;;;5055694;28;20173;-79
2021/12/27 03:27:38;;;;;;;24.97;18.37;;;9.70;99.90;;;;;;5060193;28;20173;-80
2021/12/27 03:30:08;;;;;;;24.57;17.37;;;9.80;99.90;;;;;;5059124;28;20169;-79
2021/12/27 03:32:36;;;;;;;29.07;18.30;;;9.80;99.90;;;;;;5074425;28;20174;-82
2021/12/27 03:35:10;;;;;;;26.67;18.20;;;9.70;99.90;;;;;;5057058;28;20174;-79
2021/12/27 03:37:37;;;;;;;25.33;17.97;;;9.70;99.90;;;;;;5058820;28;20217;-84
2021/12/27 03:40:04;;;;;;;31.17;18.30;;;9.70;99.90;;;;;;5061107;28;20162;-83
2021/12/27 03:42:30;;;;;;;24.57;18.03;;;9.70;99.90;;;;;;5059721;28;20507;-79
2021/12/27 03:44:56;;;;;;;27.43;18.77;;;9.70;99.90;;;;;;5073455;28;20177;-78
2021/12/27 03:47:21;;;;;;;29.20;17.47;;;9.70;99.90;;;;;;5057915;28;20146;-82
2021/12/27 03:49:50;;;;;;;26.13;18.40;;;9.70;99.90;;;;;;5060387;28;20172;-79
2021/12/27 03:52:44;;;;;;;28.43;17.33;;;9.60;99.90;;;;;;5059720;28;20208;-78
2021/12/27 03:55:14;;;;;;;25.10;16.37;;;9.60;99.90;;;;;;5057924;28;20177;-78
2021/12/27 03:58:08;;;;;;;35.47;16.43;;;9.50;99.90;;;;;;5040764;28;20201;-83
2021/12/27 04:01:23;;;;;;;27.03;17.43;;;9.60;99.90;;;;;;5059935;28;20169;-87
2021/12/27 04:03:33;;;;;;;27.10;15.80;;;9.60;99.90;;;;;;5055591;28;20190;-90
2021/12/27 04:05:59;;;;;;;24.60;15.90;;;9.50;99.90;;;;;;5058492;28;20181;-86
2021/12/27 04:08:27;;;;;;;23.43;15.10;;;9.50;99.90;;;;;;5059347;28;20149;-85
2021/12/27 04:10:54;;;;;;;25.43;15.30;;;9.50;99.90;;;;;;5059082;28;20225;-91
2021/12/27 04:13:21;;;;;;;24.27;13.60;;;9.50;99.90;;;;;;5074226;28;20183;-86
2021/12/27 04:15:50;;;;;;;20.57;12.37;;;9.50;99.90;;;;;;5074935;28;20158;-85
2021/12/27 04:18:21;;;;;;;19.37;12.63;;;9.40;99.90;;;;;;5055481;28;20209;-79
2021/12/27 04:20:48;;;;;;;23.03;13.73;;;9.30;99.90;;;;;;5053572;28;20166;-82
2021/12/27 04:23:15;;;;;;;20.97;12.07;;;9.30;99.90;;;;;;5052575;28;20177;-85
2021/12/27 04:26:03;;;;;;;19.50;11.27;;;9.20;99.90;;;;;;5052847;28;20154;-82
2021/12/27 04:28:31;;;;;;;20.57;11.93;;;9.20;99.90;;;;;;5058165;28;20196;-89
2021/12/27 04:34:22;;;;;;;23.27;13.70;;;9.30;99.90;;;;;;5055890;28;20169;-82
2021/12/27 04:36:54;;;;;;;22.07;12.43;;;9.30;99.90;;;;;;5055026;28;20213;-83
2021/12/27 04:39:27;;;;;;;18.93;12.17;;;9.30;99.90;;;;;;5053315;28;20208;-83
2021/12/27 04:42:08;;;;;;;18.03;11.43;;;9.40;99.90;;;;;;5049402;28;20342;-88
2021/12/27 04:44:35;;;;;;;17.37;11.50;;;9.50;99.90;;;;;;5057712;28;20177;-89
2021/12/27 04:47:01;;;;;;;17.00;11.50;;;9.40;99.90;;;;;;5058147;28;20201;-78
2021/12/27 04:49:27;;;;;;;16.27;10.13;;;9.40;99.90;;;;;;5054427;28;20177;-79
2021/12/27 04:51:54;;;;;;;20.03;11.57;;;9.40;99.90;;;;;;5056682;28;20170;-78
2021/12/27 04:54:19;;;;;;;15.77;9.93;;;9.40;99.90;;;;;;5058549;28;20257;-80
2021/12/27 04:56:46;;;;;;;14.20;9.43;;;9.20;99.90;;;;;;5058544;28;20165;-80
2021/12/27 04:59:12;;;;;;;15.40;9.23;;;9.30;99.90;;;;;;5058973;28;20211;-76
2021/12/27 05:01:40;;;;;;;14.27;8.93;;;9.20;99.90;;;;;;5058704;28;20166;-78
2021/12/27 05:04:07;;;;;;;14.87;8.67;;;9.20;99.90;;;;;;5058702;28;20162;-80
2021/12/27 05:06:33;;;;;;;12.03;8.30;;;9.30;99.90;;;;;;5058008;28;20169;-78
2021/12/27 05:08:59;;;;;;;13.10;8.83;;;9.30;99.90;;;;;;5058623;28;20225;-81
2021/12/27 05:11:44;;;;;;;13.57;7.73;;;9.20;99.90;;;;;;5059271;28;20161;-81
2021/12/27 05:14:27;;;;;;;12.30;8.10;;;9.30;99.90;;;;;;5057322;28;20221;-80
2021/12/27 05:16:54;;;;;;;13.03;8.10;;;9.30;99.90;;;;;;5056837;28;20173;-79
2021/12/27 05:19:25;;;;;;;12.00;7.40;;;9.20;99.90;;;;;;5055348;28;20235;-79
2021/12/27 05:21:55;;;;;;;13.53;7.93;;;9.20;99.90;;;;;;5055695;28;20200;-82
2021/12/27 05:24:27;;;;;;;11.87;7.60;;;9.20;99.90;;;;;;5051377;28;20158;-87
2021/12/27 05:26:54;;;;;;;10.03;7.27;;;9.20;99.90;;;;;;5055490;28;20164;-81
2021/12/27 05:29:19;;;;;;;11.27;7.90;;;9.30;99.90;;;;;;5056950;28;20193;-78
2021/12/27 05:31:45;;;;;;;12.00;7.60;;;9.40;99.90;;;;;;5057858;28;20166;-81
2021/12/27 05:34:20;;;;;;;10.73;7.60;;;9.40;99.90;;;;;;5059169;28;20240;-78
2021/12/27 05:36:46;;;;;;;11.53;7.70;;;9.60;99.90;;;;;;5059211;28;20177;-86
2021/12/27 05:39:16;;;;;;;12.53;8.53;;;9.50;99.90;;;;;;5058869;28;20217;-82
2021/12/27 05:41:42;;;;;;;10.83;8.10;;;9.50;99.90;;;;;;5057632;28;20185;-79
2021/12/27 05:44:08;;;;;;;11.23;8.10;;;9.70;99.90;;;;;;5058834;28;20168;-79
2021/12/27 05:46:34;;;;;;;9.63;7.43;;;9.80;99.90;;;;;;5058903;28;20161;-80
2021/12/27 05:48:59;;;;;;;11.30;8.50;;;9.90;99.90;;;;;;5058595;28;20205;-79
2021/12/27 05:51:25;;;;;;;10.97;7.93;;;9.90;99.90;;;;;;5057876;28;20174;-81
2021/12/27 05:53:51;;;;;;;10.50;8.47;;;9.90;99.90;;;;;;5054411;28;20172;-79
2021/12/27 05:56:24;;;;;;;13.03;8.57;;;10.00;99.90;;;;;;5053384;28;20181;-78
2021/12/27 05:58:50;;;;;;;13.10;8.53;;;10.20;99.90;;;;;;5053167;28;20304;-80
2021/12/27 06:01:19;;;;;;;11.70;8.40;;;10.20;99.90;;;;;;5054713;28;20195;-78
2021/12/27 06:03:47;;;;;;;11.47;8.43;;;10.30;99.90;;;;;;5054811;28;20169;-80
2021/12/27 06:06:16;;;;;;;15.40;9.33;;;10.30;99.90;;;;;;5054151;28;20186;-81
2021/12/27 06:12:20;;;;;;;14.03;9.67;;;10.30;99.90;;;;;;5055360;28;20203;-77
2021/12/27 06:18:08;;;;;;;15.43;10.67;;;10.30;99.90;;;;;;5036928;28;20212;-88
2021/12/27 06:20:34;;;;;;;15.40;10.27;;;10.40;99.90;;;;;;5036739;28;20165;-90
2021/12/27 06:23:10;;;;;;;17.53;12.27;;;10.40;99.90;;;;;;5037992;28;20212;-89
2021/12/27 06:28:59;;;;;;;17.90;13.77;;;10.20;99.90;;;;;;5038276;28;20212;-89
2021/12/27 06:31:40;;;;;;;14.57;10.90;;;10.20;99.90;;;;;;5038503;28;20256;-89
2021/12/27 06:37:28;;;;;;;13.47;10.80;;;10.30;99.90;;;;;;5038141;28;20212;-88
2021/12/27 06:43:16;;;;;;;17.13;9.60;;;10.20;99.90;;;;;;5041200;28;20203;-89
2021/12/27 06:49:04;;;;;;;16.67;9.23;;;10.20;99.90;;;;;;5041772;28;20165;-86
2021/12/27 06:51:48;;;;;;;14.27;10.33;;;10.00;99.90;;;;;;5043127;28;20166;-82
2021/12/27 06:54:16;;;;;;;13.40;9.23;;;10.00;99.90;;;;;;5041070;28;20196;-91
2021/12/27 06:56:45;;;;;;;10.13;7.97;;;9.90;99.90;;;;;;5047459;28;20177;-91
2021/12/27 06:59:13;;;;;;;10.97;8.80;;;10.10;99.90;;;;;;5054557;28;20274;-87
2021/12/27 07:01:44;;;;;;;11.53;8.63;;;9.90;99.90;;;;;;5053820;28;20541;-88
2021/12/27 07:04:13;;;;;;;12.93;8.73;;;9.90;99.90;;;;;;5054060;28;20197;-85
2021/12/27 07:06:42;;;;;;;11.13;8.37;;;9.90;99.90;;;;;;5053715;28;20165;-81
2021/12/27 07:09:10;;;;;;;13.03;8.50;;;9.90;99.90;;;;;;5051805;28;20154;-86
2021/12/27 07:11:37;;;;;;;10.87;8.03;;;10.00;99.90;;;;;;5051585;28;20166;-83
2021/12/27 07:14:05;;;;;;;10.33;8.80;;;10.00;99.90;;;;;;5053477;28;20173;-79
2021/12/27 07:16:34;;;;;;;12.17;8.03;;;10.10;99.90;;;;;;5060333;28;20185;-81
2021/12/27 07:19:00;;;;;;;10.70;7.13;;;10.10;99.90;;;;;;5059886;28;20189;-80
2021/12/27 07:21:25;;;;;;;11.13;7.70;;;10.10;99.90;;;;;;5059832;28;20174;-78
2021/12/27 07:23:51;;;;;;;11.67;7.80;;;10.00;99.90;;;;;;5058628;28;20223;-83
2021/12/27 07:26:18;;;;;;;8.43;6.93;;;10.00;99.90;;;;;;5060148;28;20173;-80
2021/12/27 07:28:44;;;;;;;9.17;7.10;;;10.20;99.90;;;;;;5059815;28;20193;-86
2021/12/27 07:31:10;;;;;;;9.07;7.07;;;10.20;99.90;;;;;;5058919;28;20241;-81
2021/12/27 07:33:40;;;;;;;11.47;6.77;;;10.20;99.90;;;;;;5058938;28;20184;-81
2021/12/27 07:36:08;;;;;;;9.03;6.20;;;10.00;99.90;;;;;;5055953;28;20158;-77
2021/12/27 07:38:35;;;;;;;10.93;6.27;;;10.20;99.90;;;;;;5058966;28;20193;-82
2021/12/27 07:41:01;;;;;;;9.87;7.10;;;10.20;99.90;;;;;;5058389;28;20146;-86
2021/12/27 07:43:27;;;;;;;8.50;6.50;;;10.20;99.90;;;;;;5055435;28;20200;-79
2021/12/27 07:45:53;;;;;;;9.00;5.80;;;10.10;99.90;;;;;;5057328;28;20173;-84
2021/12/27 07:48:19;;;;;;;10.90;6.20;;;10.00;99.90;;;;;;5057696;28;20173;-79
2021/12/27 07:50:44;;;;;;;8.17;5.40;;;10.10;99.90;;;;;;5056374;28;20683;-76
2021/12/27 07:53:10;;;;;;;10.73;6.57;;;10.00;99.90;;;;;;5056084;28;20178;-78
2021/12/27 07:55:36;;;;;;;8.97;5.93;;;10.10;99.90;;;;;;5056673;28;20185;-80
2021/12/27 07:58:02;;;;;;;8.73;5.87;;;10.20;99.90;;;;;;5059027;28;20202;-82
2021/12/27 08:00:29;;;;;;;8.20;5.17;;;10.20;99.90;;;;;;5057880;28;20182;-82
2021/12/27 08:02:55;;;;;;;5.60;4.30;;;10.20;99.90;;;;;;5042830;28;20166;-87
2021/12/27 08:05:22;;;;;;;9.60;5.40;;;10.30;99.90;;;;;;5059875;28;20169;-84
2021/12/27 08:07:48;;;;;;;8.77;4.83;;;10.40;99.90;;;;;;5059350;28;20142;-81
2021/12/27 08:10:15;;;;;;;7.13;4.80;;;10.40;99.90;;;;;;5058841;28;20258;-79
2021/12/27 08:12:43;;;;;;;6.33;4.20;;;10.50;99.90;;;;;;5042505;28;20174;-79
2021/12/27 08:15:12;;;;;;;8.10;4.83;;;10.50;99.90;;;;;;5041496;28;20205;-80
2021/12/27 08:17:39;;;;;;;8.20;4.30;;;10.50;99.90;;;;;;5059626;28;20154;-82
2021/12/27 08:20:07;;;;;;;5.73;4.53;;;10.50;99.90;;;;;;5059093;28;20173;-81
2021/12/27 08:22:33;;;;;;;6.87;4.80;;;10.60;99.90;;;;;;5040846;28;20182;-79
2021/12/27 08:24:59;;;;;;;5.70;4.40;;;10.50;99.90;;;;;;5056213;28;20168;-79
2021/12/27 08:27:28;;;;;;;6.13;4.17;;;10.50;99.90;;;;;;5054329;28;20176;-82
2021/12/27 08:29:55;;;;;;;6.60;4.23;;;10.50;99.90;;;;;;5057820;28;20179;-79
2021/12/27 08:32:20;;;;;;;6.23;4.23;;;10.60;99.90;;;;;;5055529;28;20170;-84
2021/12/27 08:34:50;;;;;;;5.53;3.83;;;10.70;99.90;;;;;;5053787;28;20174;-78
2021/12/27 08:37:16;;;;;;;5.37;3.50;;;10.70;99.90;;;;;;5056837;28;20162;-83
2021/12/27 08:39:41;;;;;;;5.80;3.73;;;10.60;99.90;;;;;;5054405;28;20211;-81
2021/12/27 08:42:10;;;;;;;5.63;3.70;;;10.60;99.90;;;;;;5036059;28;20173;-84
2021/12/27 08:44:37;;;;;;;6.20;3.70;;;10.70;99.90;;;;;;5055630;28;20212;-80
2021/12/27 08:47:05;;;;;;;6.07;3.90;;;10.70;99.90;;;;;;5055283;28;20189;-78
2021/12/27 08:49:31;;;;;;;4.70;3.80;;;10.60;99.90;;;;;;5053566;28;20192;-81
2021/12/27 08:51:56;;;;;;;5.07;3.87;;;10.70;99.90;;;;;;5051993;28;20197;-84
2021/12/27 08:54:22;;;;;;;6.10;4.50;;;10.70;99.90;;;;;;5053374;28;20177;-80
2021/12/27 08:56:48;;;;;;;6.70;4.27;;;10.90;99.90;;;;;;5051281;28;20193;-79
2021/12/27 08:59:14;;;;;;;6.87;4.13;;;10.80;99.90;;;;;;5051611;28;20271;-82
2021/12/27 09:01:45;;;;;;;6.90;4.40;;;10.90;99.90;;;;;;5048517;28;20276;-91
2021/12/27 09:04:14;;;;;;;7.17;4.33;;;10.90;99.90;;;;;;5043832;28;20170;-91
2021/12/27 09:06:43;;;;;;;6.37;4.50;;;10.70;99.90;;;;;;5043953;28;20204;-90
2021/12/27 09:09:11;;;;;;;13.83;8.37;;;10.80;99.90;;;;;;5041737;28;20158;-86
2021/12/27 09:11:38;;;;;;;8.53;6.03;;;10.90;99.90;;;;;;5040762;28;20159;-88
2021/12/27 09:14:15;;;;;;;6.10;4.60;;;10.90;99.90;;;;;;5040495;28;20205;-87
2021/12/27 09:16:44;;;;;;;6.40;4.60;;;11.00;99.90;;;;;;5041296;28;20162;-86
2021/12/27 09:19:11;;;;;;;7.87;5.03;;;11.10;99.90;;;;;;5040646;28;20263;-85
2021/12/27 09:21:40;;;;;;;6.37;4.10;;;11.20;99.90;;;;;;5043461;28;20173;-81
2021/12/27 09:24:06;;;;;;;6.00;5.07;;;11.20;99.90;;;;;;5046409;28;20161;-79
2021/12/27 09:26:33;;;;;;;5.40;4.00;;;11.30;99.90;;;;;;5031119;28;20186;-82
2021/12/27 09:29:02;;;;;;;4.63;3.70;;;11.40;99.90;;;;;;5049829;28;20174;-84
2021/12/27 09:32:21;;;;;;;5.63;3.87;;;11.40;99.90;;;;;;5050050;28;20181;-80
2021/12/27 09:34:48;;;;;;;4.53;3.20;;;11.20;99.90;;;;;;5051363;28;20158;-78
2021/12/27 09:37:30;;;;;;;6.43;3.33;;;11.10;99.90;;;;;;5050824;28;20173;-83
2021/12/27 09:40:32;;;;;;;4.50;3.57;;;11.00;99.90;;;;;;5049176;28;20192;-82
2021/12/27 09:42:58;;;;;;;6.57;3.43;;;10.90;99.90;;;;;;5043675;28;20217;-93
2021/12/27 09:45:27;;;;;;;6.17;4.40;;;10.80;99.90;;;;;;5055981;28;20172;-85
2021/12/27 09:48:16;;;;;;;5.53;3.77;;;10.90;99.90;;;;;;5058105;28;20304;-78
2021/12/27 09:50:50;;;;;;;5.03;2.87;;;11.00;99.90;;;;;;5056747;28;20193;-84
2021/12/27 09:53:20;;;;;;;7.10;3.57;;;11.10;99.90;;;;;;5056504;28;20157;-81
2021/12/27 09:55:46;;;;;;;5.77;3.53;;;11.10;99.90;;;;;;5056437;28;20216;-81
2021/12/27 09:58:14;;;;;;;6.77;3.83;;;11.20;99.90;;;;;;5050573;28;20216;-80
2021/12/27 10:00:43;;;;;;;5.10;3.40;;;11.20;99.90;;;;;;5041492;28;20202;-83
2021/12/27 10:03:22;;;;;;;7.67;5.40;;;11.40;99.90;;;;;;5041484;28;20672;-90
2021/12/27 10:05:48;;;;;;;6.40;5.40;;;11.40;99.90;;;;;;5039398;28;20180;-86
2021/12/27 10:08:17;;;;;;;8.73;6.30;;;11.40;99.90;;;;;;5044550;28;20166;-88
2021/12/27 10:10:46;;;;;;;7.57;4.40;;;11.50;99.90;;;;;;5044801;28;20189;-85
2021/12/27 10:13:12;;;;;;;4.67;3.63;;;11.60;99.90;;;;;;5043250;28;20180;-80
2021/12/27 10:15:41;;;;;;;4.87;3.37;;;11.70;99.90;;;;;;5054468;28;20169;-79
2021/12/27 10:18:15;;;;;;;5.47;3.80;;;11.70;99.90;;;;;;5054960;28;20288;-80
2021/12/27 10:20:44;;;;;;;3.67;2.73;;;11.70;99.90;;;;;;5054674;28;20240;-79
2021/12/27 10:23:12;;;;;;;5.00;3.83;;;11.50;99.90;;;;;;5045256;28;20169;-79
2021/12/27 10:25:38;;;;;;;4.97;3.20;;;11.60;99.90;;;;;;5043711;28;20173;-83
2021/12/27 10:28:05;;;;;;;5.07;2.87;;;11.70;99.90;;;;;;5047030;28;20192;-81
2021/12/27 10:30:45;;;;;;;6.10;2.90;;;11.90;99.90;;;;;;5047374;28;20182;-86
2021/12/27 10:33:14;;;;;;;7.43;3.67;;;12.10;99.90;;;;;;5047094;28;20173;-82
2021/12/27 10:35:45;;;;;;;5.20;3.33;;;11.90;99.90;;;;;;5047701;28;20164;-87
2021/12/27 10:38:41;;;;;;;5.77;3.30;;;11.90;99.90;;;;;;5045606;28;20216;-79
2021/12/27 10:41:11;;;;;;;4.77;3.53;;;11.90;99.90;;;;;;5061937;28;20254;-83
2021/12/27 10:43:45;;;;;;;5.03;3.40;;;11.80;99.90;;;;;;5047508;28;20204;-84
2021/12/27 10:46:16;;;;;;;5.60;3.80;;;11.80;99.90;;;;;;5041379;28;20215;-83
2021/12/27 10:48:55;;;;;;;5.10;3.20;;;11.90;99.90;;;;;;5046086;28;20174;-87
2021/12/27 10:51:21;;;;;;;3.90;2.80;;;11.90;99.90;;;;;;5044527;28;20169;-90
2021/12/27 10:53:54;;;;;;;4.70;2.93;;;12.20;99.90;;;;;;5044842;28;20169;-80
2021/12/27 10:56:23;;;;;;;4.10;3.37;;;11.90;99.90;;;;;;5045862;28;20245;-80
2021/12/27 10:59:00;;;;;;;3.70;2.77;;;12.10;99.90;;;;;;5049548;28;20205;-78
2021/12/27 11:01:48;;;;;;;4.63;2.73;;;12.00;99.90;;;;;;5040195;28;20194;-93
2021/12/27 11:04:33;;;;;;;5.53;3.73;;;12.00;99.90;;;;;;5042123;28;20213;-88
2021/12/27 11:07:08;;;;;;;7.07;4.50;;;12.00;99.90;;;;;;5044236;28;20153;-80
2021/12/27 11:10:11;;;;;;;7.47;4.00;;;12.30;99.90;;;;;;5037424;28;20196;-79
2021/12/27 11:12:44;;;;;;;6.27;4.83;;;12.20;99.90;;;;;;5038545;28;20172;-93
2021/12/27 11:15:11;;;;;;;5.63;3.80;;;12.20;99.90;;;;;;5039597;28;20622;-86
2021/12/27 11:17:39;;;;;;;10.77;4.67;;;12.30;99.90;;;;;;5039021;28;20175;-84
2021/12/27 11:20:12;;;;;;;6.17;4.00;;;12.20;99.90;;;;;;5036123;28;20664;-80
2021/12/27 11:22:42;;;;;;;8.50;5.67;;;12.10;99.90;;;;;;5037713;28;20261;-84
2021/12/27 11:25:21;;;;;;;9.60;4.53;;;12.10;99.90;;;;;;5038544;28;20170;-86
2021/12/27 11:27:48;;;;;;;6.77;4.57;;;12.10;99.90;;;;;;5039877;28;20257;-83
2021/12/27 11:30:23;;;;;;;6.37;3.40;;;12.00;99.90;;;;;;5039362;28;20171;-85
2021/12/27 11:33:12;;;;;;;6.90;3.70;;;11.90;99.90;;;;;;5040178;28;20269;-87
2021/12/27 11:36:02;;;;;;;5.30;3.87;;;11.90;99.90;;;;;;5039391;28;20204;-84
2021/12/27 11:38:51;;;;;;;8.77;4.40;;;12.00;99.90;;;;;;5039644;28;20217;-89
2021/12/27 11:41:36;;;;;;;5.97;4.10;;;11.90;99.90;;;;;;5041614;28;20180;-88
2021/12/27 11:44:06;;;;;;;5.63;3.90;;;12.00;99.90;;;;;;5041777;28;20169;-84
2021/12/27 11:46:49;;;;;;;5.87;4.23;;;12.10;99.90;;;;;;5041523;28;20169;-84
2021/12/27 11:49:30;;;;;;;9.10;4.20;;;11.90;99.90;;;;;;5042011;28;20158;-88
2021/12/27 11:52:16;;;;;;;7.33;4.40;;;11.90;99.90;;;;;;5041805;28;20208;-87
2021/12/27 11:54:50;;;;;;;9.60;4.00;;;11.90;99.90;;;;;;5042121;28;20162;-87
2021/12/27 11:57:39;;;;;;;6.47;4.30;;;11.90;99.90;;;;;;5039759;28;20197;-83
2021/12/27 12:00:23;;;;;;;8.17;4.93;;;12.00;99.90;;;;;;5043974;28;20174;-81
2021/12/27 12:03:02;;;;;;;7.53;4.37;;;12.00;99.90;;;;;;5053882;28;20164;-87
2021/12/27 12:05:48;;;;;;;6.57;5.00;;;12.00;99.90;;;;;;5050560;28;20169;-81
2021/12/27 12:08:27;;;;;;;9.60;4.90;;;12.00;99.90;;;;;;5048199;28;20158;-82
2021/12/27 12:11:08;;;;;;;7.67;4.57;;;12.00;99.90;;;;;;5048874;28;20239;-81
2021/12/27 12:13:36;;;;;;;8.33;5.27;;;11.90;99.90;;;;;;5043871;28;20246;-85
2021/12/27 12:16:20;;;;;;;8.00;5.87;;;12.10;99.90;;;;;;5042909;28;20173;-87
2021/12/27 12:18:51;;;;;;;7.37;4.40;;;12.00;99.90;;;;;;5041224;28;20683;-82
2021/12/27 12:21:38;;;;;;;8.40;4.50;;;11.80;99.90;;;;;;5040410;28;20228;-89
2021/12/27 12:24:13;;;;;;;6.63;4.00;;;11.80;99.90;;;;;;5046656;28;20231;-79
2021/12/27 12:27:07;;;;;;;9.50;4.57;;;12.00;99.90;;;;;;5049809;28;20177;-81
2021/12/27 12:29:41;;;;;;;6.40;4.20;;;12.00;99.90;;;;;;5048937;28;20174;-79
2021/12/27 12:32:10;;;;;;;6.17;3.90;;;12.00;99.90;;;;;;5049482;28;20230;-80
2021/12/27 12:34:37;;;;;;;8.47;4.07;;;12.00;99.90;;;;;;5049978;28;20173;-79
2021/12/27 12:37:14;;;;;;;5.53;3.77;;;12.00;99.90;;;;;;5050978;28;20162;-80
2021/12/27 12:39:48;;;;;;;7.93;4.53;;;12.10;99.90;;;;;;5043420;28;20218;-91
2021/12/27 12:42:23;;;;;;;10.33;4.47;;;12.20;99.90;;;;;;5044230;28;20237;-85
2021/12/27 12:44:56;;;;;;;10.13;5.70;;;12.20;99.90;;;;;;5045807;28;20224;-84
2021/12/27 12:47:25;;;;;;;9.80;4.63;;;12.20;99.90;;;;;;5042019;28;20165;-82
2021/12/27 12:49:51;;;;;;;9.43;4.10;;;12.10;99.90;;;;;;5039290;28;20591;-82
2021/12/27 12:52:18;;;;;;;7.27;4.67;;;12.10;99.90;;;;;;5055137;28;20180;-87
2021/12/27 12:54:45;;;;;;;7.17;3.73;;;12.00;99.90;;;;;;5045577;28;20189;-92
2021/12/27 12:57:29;;;;;;;11.90;4.73;;;11.90;99.90;;;;;;5039229;28;20207;-88
2021/12/27 12:59:58;;;;;;;9.47;4.80;;;11.90;99.90;;;;;;5040773;28;20181;-79
2021/12/27 13:02:30;;;;;;;10.83;4.90;;;11.80;99.90;;;;;;5041101;28;20328;-80
2021/12/27 13:05:02;;;;;;;6.93;3.57;;;11.70;99.90;;;;;;5040184;28;20319;-89
2021/12/27 13:07:32;;;;;;;8.17;3.90;;;11.60;99.90;;;;;;5041293;28;20787;-88
2021/12/27 13:10:03;;;;;;;6.47;4.10;;;11.60;99.90;;;;;;5041412;28;20200;-82
2021/12/27 13:12:30;;;;;;;8.60;4.30;;;11.70;99.90;;;;;;5039362;28;20178;-85
2021/12/27 13:15:15;;;;;;;10.90;4.20;;;11.70;99.90;;;;;;5040964;28;20581;-88
2021/12/27 13:17:58;;;;;;;8.53;4.20;;;11.70;99.90;;;;;;5042775;28;20197;-83
2021/12/27 13:20:25;;;;;;;9.80;3.57;;;11.60;99.90;;;;;;5042699;28;20203;-80
2021/12/27 13:22:56;;;;;;;9.43;4.50;;;11.60;99.90;;;;;;5045043;28;20158;-84
2021/12/27 13:25:40;;;;;;;6.43;3.60;;;11.60;99.90;;;;;;5050078;28;20181;-82
2021/12/27 13:28:26;;;;;;;8.23;3.87;;;11.60;99.90;;;;;;5051262;28;20157;-83